sensor_id;sensor_type;location;lat;lon;timestamp;P1;durP1;ratioP1;P2;durP2;ratioP2
18857;SDS011;9558;50.178;8.370;2023-02-05T00:01:10;1.63;;;0.70;;
18857;SDS011;9558;50.178;8.370;2023-02-05T00:03:37;5.70;;;1.55;;
18857;SDS011;9558;50.178;8.370;2023-02-05T00:06:03;1.73;;;0.70;;
18857;SDS011;9558;50.178;8.370;2023-02-05T00:08:30;0.77;;;0.43;;
18857;SDS011;9558;50.178;8.370;2023-02-05T00:10:59;1.60;;;0.50;;
18857;SDS011;9558;50.178;8.370;2023-02-05T00:13:31;15.90;;;1.20;;
18857;SDS011;9558;50.178;8.370;2023-02-05T00:15:58;2.08;;;1.38;;
18857;SDS011;9558;50.178;8.370;2023-02-05T00:18:24;1.25;;;0.75;;
18857;SDS011;9558;50.178;8.370;2023-02-05T00:20:51;0.68;;;0.35;;
18857;SDS011;9558;50.178;8.370;2023-02-05T00:23:17;0.57;;;0.40;;
18857;SDS011;9558;50.178;8.370;2023-02-05T00:25:44;0.40;;;0.40;;
18857;SDS011;9558;50.178;8.370;2023-02-05T00:28:11;5.50;;;1.00;;
18857;SDS011;9558;50.178;8.370;2023-02-05T00:33:05;0.30;;;0.30;;
18857;SDS011;9558;50.178;8.370;2023-02-05T00:35:32;3.38;;;1.13;;
18857;SDS011;9558;50.178;8.370;2023-02-05T00:37:58;0.57;;;0.50;;
18857;SDS011;9558;50.178;8.370;2023-02-05T00:40:25;2.20;;;0.98;;
18857;SDS011;9558;50.178;8.370;2023-02-05T00:42:51;0.43;;;0.43;;
18857;SDS011;9558;50.178;8.370;2023-02-05T00:45:19;5.53;;;1.10;;
18857;SDS011;9558;50.178;8.370;2023-02-05T00:50:12;0.88;;;0.75;;
18857;SDS011;9558;50.178;8.370;2023-02-05T00:52:38;1.13;;;0.30;;
18857;SDS011;9558;50.178;8.370;2023-02-05T00:55:05;0.00;;;0.00;;
18857;SDS011;9558;50.178;8.370;2023-02-05T00:57:32;1.02;;;0.35;;
18857;SDS011;9558;50.178;8.370;2023-02-05T00:59:58;1.45;;;0.38;;
18857;SDS011;9558;50.178;8.370;2023-02-05T01:02:26;0.50;;;0.50;;
18857;SDS011;9558;50.178;8.370;2023-02-05T01:07:20;0.30;;;0.30;;
18857;SDS011;9558;50.178;8.370;2023-02-05T01:09:46;0.35;;;0.10;;
18857;SDS011;9558;50.178;8.370;2023-02-05T01:12:13;0.40;;;0.40;;
18857;SDS011;9558;50.178;8.370;2023-02-05T01:14:40;0.38;;;0.38;;
18857;SDS011;9558;50.178;8.370;2023-02-05T01:17:07;0.77;;;0.65;;
18857;SDS011;9558;50.178;8.370;2023-02-05T01:19:35;1.70;;;0.77;;
18857;SDS011;9558;50.178;8.370;2023-02-05T01:22:02;0.95;;;0.85;;
18857;SDS011;9558;50.178;8.370;2023-02-05T01:24:29;3.13;;;1.05;;
18857;SDS011;9558;50.178;8.370;2023-02-05T01:26:56;5.03;;;1.38;;
18857;SDS011;9558;50.178;8.370;2023-02-05T01:29:23;2.13;;;1.52;;
18857;SDS011;9558;50.178;8.370;2023-02-05T01:31:49;3.67;;;2.10;;
18857;SDS011;9558;50.178;8.370;2023-02-05T01:34:16;3.17;;;1.15;;
18857;SDS011;9558;50.178;8.370;2023-02-05T01:36:44;1.40;;;0.73;;
18857;SDS011;9558;50.178;8.370;2023-02-05T01:39:10;1.80;;;0.98;;
18857;SDS011;9558;50.178;8.370;2023-02-05T01:41:37;2.63;;;1.02;;
18857;SDS011;9558;50.178;8.370;2023-02-05T01:44:07;2.10;;;1.00;;
18857;SDS011;9558;50.178;8.370;2023-02-05T01:46:35;1.40;;;0.63;;
18857;SDS011;9558;50.178;8.370;2023-02-05T01:49:02;0.85;;;0.60;;
18857;SDS011;9558;50.178;8.370;2023-02-05T01:51:31;1.55;;;0.95;;
18857;SDS011;9558;50.178;8.370;2023-02-05T01:54:02;1.65;;;0.73;;
18857;SDS011;9558;50.178;8.370;2023-02-05T01:56:30;0.35;;;0.35;;
18857;SDS011;9558;50.178;8.370;2023-02-05T01:59:01;0.40;;;0.40;;
18857;SDS011;9558;50.178;8.370;2023-02-05T02:01:31;0.75;;;0.70;;
18857;SDS011;9558;50.178;8.370;2023-02-05T02:03:58;4.00;;;0.70;;
18857;SDS011;9558;50.178;8.370;2023-02-05T02:06:28;1.30;;;0.90;;
18857;SDS011;9558;50.178;8.370;2023-02-05T02:08:55;1.98;;;0.73;;
18857;SDS011;9558;50.178;8.370;2023-02-05T02:11:24;0.68;;;0.50;;
18857;SDS011;9558;50.178;8.370;2023-02-05T02:13:53;1.83;;;1.50;;
18857;SDS011;9558;50.178;8.370;2023-02-05T02:16:22;1.58;;;0.75;;
18857;SDS011;9558;50.178;8.370;2023-02-05T02:18:49;1.98;;;1.33;;
18857;SDS011;9558;50.178;8.370;2023-02-05T02:21:32;2.40;;;1.25;;
18857;SDS011;9558;50.178;8.370;2023-02-05T02:24:21;0.57;;;0.52;;
18857;SDS011;9558;50.178;8.370;2023-02-05T02:27:04;1.85;;;0.73;;
18857;SDS011;9558;50.178;8.370;2023-02-05T02:29:44;1.40;;;0.63;;
18857;SDS011;9558;50.178;8.370;2023-02-05T02:32:17;0.40;;;0.30;;
18857;SDS011;9558;50.178;8.370;2023-02-05T02:34:46;1.67;;;1.00;;
18857;SDS011;9558;50.178;8.370;2023-02-05T02:37:17;4.20;;;1.98;;
18857;SDS011;9558;50.178;8.370;2023-02-05T02:39:51;4.38;;;0.93;;
18857;SDS011;9558;50.178;8.370;2023-02-05T02:42:25;0.85;;;0.45;;
18857;SDS011;9558;50.178;8.370;2023-02-05T02:44:59;0.43;;;0.43;;
18857;SDS011;9558;50.178;8.370;2023-02-05T02:47:28;0.95;;;0.63;;
18857;SDS011;9558;50.178;8.370;2023-02-05T02:49:58;1.60;;;1.13;;
18857;SDS011;9558;50.178;8.370;2023-02-05T02:52:30;1.50;;;1.40;;
18857;SDS011;9558;50.178;8.370;2023-02-05T02:55:02;0.98;;;0.88;;
18857;SDS011;9558;50.178;8.370;2023-02-05T02:57:34;2.40;;;0.57;;
18857;SDS011;9558;50.178;8.370;2023-02-05T03:00:05;1.42;;;0.60;;
18857;SDS011;9558;50.178;8.370;2023-02-05T03:02:35;1.85;;;1.10;;
18857;SDS011;9558;50.178;8.370;2023-02-05T03:05:05;3.17;;;1.48;;
18857;SDS011;9558;50.178;8.370;2023-02-05T03:07:35;2.15;;;1.40;;
18857;SDS011;9558;50.178;8.370;2023-02-05T03:10:06;1.27;;;0.90;;
18857;SDS011;9558;50.178;8.370;2023-02-05T03:12:37;4.40;;;1.52;;
18857;SDS011;9558;50.178;8.370;2023-02-05T03:15:06;0.80;;;0.60;;
18857;SDS011;9558;50.178;8.370;2023-02-05T03:17:33;2.20;;;0.88;;
18857;SDS011;9558;50.178;8.370;2023-02-05T03:20:02;2.55;;;0.88;;
18857;SDS011;9558;50.178;8.370;2023-02-05T03:22:34;2.33;;;1.50;;
18857;SDS011;9558;50.178;8.370;2023-02-05T03:25:01;4.32;;;1.17;;
18857;SDS011;9558;50.178;8.370;2023-02-05T03:27:29;1.98;;;1.33;;
18857;SDS011;9558;50.178;8.370;2023-02-05T03:29:55;0.90;;;0.80;;
18857;SDS011;9558;50.178;8.370;2023-02-05T03:32:27;10.80;;;0.75;;
18857;SDS011;9558;50.178;8.370;2023-02-05T03:35:17;1.75;;;1.20;;
18857;SDS011;9558;50.178;8.370;2023-02-05T03:37:53;0.70;;;0.70;;
18857;SDS011;9558;50.178;8.370;2023-02-05T03:40:37;2.05;;;0.60;;
18857;SDS011;9558;50.178;8.370;2023-02-05T03:43:10;1.63;;;1.10;;
18857;SDS011;9558;50.178;8.370;2023-02-05T03:45:47;7.78;;;1.52;;
18857;SDS011;9558;50.178;8.370;2023-02-05T03:48:27;1.33;;;0.75;;
18857;SDS011;9558;50.178;8.370;2023-02-05T03:51:05;0.85;;;0.85;;
18857;SDS011;9558;50.178;8.370;2023-02-05T03:53:46;2.20;;;0.80;;
18857;SDS011;9558;50.178;8.370;2023-02-05T03:56:19;0.93;;;0.50;;
18857;SDS011;9558;50.178;8.370;2023-02-05T03:58:51;0.47;;;0.47;;
18857;SDS011;9558;50.178;8.370;2023-02-05T04:01:21;2.55;;;1.45;;
18857;SDS011;9558;50.178;8.370;2023-02-05T04:03:51;4.22;;;0.93;;
18857;SDS011;9558;50.178;8.370;2023-02-05T04:08:44;2.40;;;0.90;;
18857;SDS011;9558;50.178;8.370;2023-02-05T04:11:11;0.22;;;0.22;;
18857;SDS011;9558;50.178;8.370;2023-02-05T04:13:37;7.25;;;0.77;;
18857;SDS011;9558;50.178;8.370;2023-02-05T04:16:04;1.83;;;1.15;;
18857;SDS011;9558;50.178;8.370;2023-02-05T04:18:30;0.52;;;0.50;;
18857;SDS011;9558;50.178;8.370;2023-02-05T04:20:58;9.52;;;1.17;;
18857;SDS011;9558;50.178;8.370;2023-02-05T04:23:25;1.23;;;0.80;;
18857;SDS011;9558;50.178;8.370;2023-02-05T04:25:52;1.08;;;0.40;;
18857;SDS011;9558;50.178;8.370;2023-02-05T04:28:19;1.45;;;0.80;;
18857;SDS011;9558;50.178;8.370;2023-02-05T04:30:46;0.73;;;0.38;;
18857;SDS011;9558;50.178;8.370;2023-02-05T04:33:12;1.13;;;0.65;;
18857;SDS011;9558;50.178;8.370;2023-02-05T04:35:39;1.15;;;0.52;;
18857;SDS011;9558;50.178;8.370;2023-02-05T04:38:06;1.38;;;0.88;;
18857;SDS011;9558;50.178;8.370;2023-02-05T04:40:33;1.70;;;0.40;;
18857;SDS011;9558;50.178;8.370;2023-02-05T04:42:59;4.32;;;1.58;;
18857;SDS011;9558;50.178;8.370;2023-02-05T04:45:26;2.70;;;1.67;;
18857;SDS011;9558;50.178;8.370;2023-02-05T04:47:57;2.60;;;1.02;;
18857;SDS011;9558;50.178;8.370;2023-02-05T04:50:24;1.98;;;1.65;;
18857;SDS011;9558;50.178;8.370;2023-02-05T04:52:51;1.98;;;1.10;;
18857;SDS011;9558;50.178;8.370;2023-02-05T04:55:19;1.33;;;1.10;;
18857;SDS011;9558;50.178;8.370;2023-02-05T04:57:45;5.38;;;1.27;;
18857;SDS011;9558;50.178;8.370;2023-02-05T05:00:12;1.83;;;0.85;;
18857;SDS011;9558;50.178;8.370;2023-02-05T05:02:39;5.20;;;1.58;;
18857;SDS011;9558;50.178;8.370;2023-02-05T05:05:06;0.85;;;0.50;;
18857;SDS011;9558;50.178;8.370;2023-02-05T05:07:33;3.55;;;0.90;;
18857;SDS011;9558;50.178;8.370;2023-02-05T05:09:59;0.77;;;0.63;;
18857;SDS011;9558;50.178;8.370;2023-02-05T05:12:27;4.53;;;1.70;;
18857;SDS011;9558;50.178;8.370;2023-02-05T05:14:54;1.05;;;0.95;;
18857;SDS011;9558;50.178;8.370;2023-02-05T05:17:20;2.60;;;0.73;;
18857;SDS011;9558;50.178;8.370;2023-02-05T05:19:47;1.75;;;1.15;;
18857;SDS011;9558;50.178;8.370;2023-02-05T05:22:13;1.50;;;0.77;;
18857;SDS011;9558;50.178;8.370;2023-02-05T05:24:40;2.58;;;1.17;;
18857;SDS011;9558;50.178;8.370;2023-02-05T05:27:06;1.27;;;0.57;;
18857;SDS011;9558;50.178;8.370;2023-02-05T05:29:35;0.95;;;0.73;;
18857;SDS011;9558;50.178;8.370;2023-02-05T05:32:01;5.90;;;0.90;;
18857;SDS011;9558;50.178;8.370;2023-02-05T05:34:28;3.70;;;1.00;;
18857;SDS011;9558;50.178;8.370;2023-02-05T05:36:55;3.20;;;1.00;;
18857;SDS011;9558;50.178;8.370;2023-02-05T05:39:22;2.88;;;1.70;;
18857;SDS011;9558;50.178;8.370;2023-02-05T05:42:20;2.42;;;1.30;;
18857;SDS011;9558;50.178;8.370;2023-02-05T05:45:06;3.30;;;1.25;;
18857;SDS011;9558;50.178;8.370;2023-02-05T05:47:33;3.83;;;1.45;;
18857;SDS011;9558;50.178;8.370;2023-02-05T05:50:00;3.30;;;1.42;;
18857;SDS011;9558;50.178;8.370;2023-02-05T05:52:26;5.22;;;1.50;;
18857;SDS011;9558;50.178;8.370;2023-02-05T05:54:53;1.80;;;1.63;;
18857;SDS011;9558;50.178;8.370;2023-02-05T05:57:19;2.35;;;1.45;;
18857;SDS011;9558;50.178;8.370;2023-02-05T05:59:46;4.07;;;1.27;;
18857;SDS011;9558;50.178;8.370;2023-02-05T06:02:14;3.85;;;1.48;;
18857;SDS011;9558;50.178;8.370;2023-02-05T06:04:40;5.65;;;1.95;;
18857;SDS011;9558;50.178;8.370;2023-02-05T06:07:07;3.10;;;1.13;;
18857;SDS011;9558;50.178;8.370;2023-02-05T06:09:33;7.72;;;1.50;;
18857;SDS011;9558;50.178;8.370;2023-02-05T06:12:00;4.22;;;1.67;;
18857;SDS011;9558;50.178;8.370;2023-02-05T06:14:26;3.15;;;1.02;;
18857;SDS011;9558;50.178;8.370;2023-02-05T06:16:53;1.45;;;0.82;;
18857;SDS011;9558;50.178;8.370;2023-02-05T06:19:21;4.20;;;1.20;;
18857;SDS011;9558;50.178;8.370;2023-02-05T06:21:48;2.63;;;1.48;;
18857;SDS011;9558;50.178;8.370;2023-02-05T06:24:14;11.82;;;2.25;;
18857;SDS011;9558;50.178;8.370;2023-02-05T06:26:41;4.95;;;2.42;;
18857;SDS011;9558;50.178;8.370;2023-02-05T06:29:07;10.63;;;1.90;;
18857;SDS011;9558;50.178;8.370;2023-02-05T06:31:34;2.03;;;1.50;;
18857;SDS011;9558;50.178;8.370;2023-02-05T06:34:00;5.43;;;2.47;;
18857;SDS011;9558;50.178;8.370;2023-02-05T06:36:28;3.55;;;1.60;;
18857;SDS011;9558;50.178;8.370;2023-02-05T06:38:55;3.95;;;1.15;;
18857;SDS011;9558;50.178;8.370;2023-02-05T06:41:22;1.58;;;0.98;;
18857;SDS011;9558;50.178;8.370;2023-02-05T06:43:48;3.10;;;1.75;;
18857;SDS011;9558;50.178;8.370;2023-02-05T06:46:15;1.65;;;1.52;;
18857;SDS011;9558;50.178;8.370;2023-02-05T06:48:41;11.68;;;1.85;;
18857;SDS011;9558;50.178;8.370;2023-02-05T06:51:08;2.53;;;1.70;;
18857;SDS011;9558;50.178;8.370;2023-02-05T06:53:35;9.63;;;1.25;;
18857;SDS011;9558;50.178;8.370;2023-02-05T06:56:02;10.38;;;1.85;;
18857;SDS011;9558;50.178;8.370;2023-02-05T06:58:29;3.35;;;1.27;;
18857;SDS011;9558;50.178;8.370;2023-02-05T07:00:56;3.50;;;1.85;;
18857;SDS011;9558;50.178;8.370;2023-02-05T07:03:22;5.70;;;2.40;;
18857;SDS011;9558;50.178;8.370;2023-02-05T07:05:49;2.60;;;1.23;;
18857;SDS011;9558;50.178;8.370;2023-02-05T07:08:15;6.55;;;3.58;;
18857;SDS011;9558;50.178;8.370;2023-02-05T07:10:43;3.95;;;1.98;;
18857;SDS011;9558;50.178;8.370;2023-02-05T07:13:10;5.50;;;2.38;;
18857;SDS011;9558;50.178;8.370;2023-02-05T07:15:36;6.97;;;1.30;;
18857;SDS011;9558;50.178;8.370;2023-02-05T07:18:03;2.97;;;1.88;;
18857;SDS011;9558;50.178;8.370;2023-02-05T07:20:30;3.75;;;2.22;;
18857;SDS011;9558;50.178;8.370;2023-02-05T07:22:56;10.57;;;2.47;;
18857;SDS011;9558;50.178;8.370;2023-02-05T07:25:23;4.10;;;2.78;;
18857;SDS011;9558;50.178;8.370;2023-02-05T07:27:51;5.93;;;1.50;;
18857;SDS011;9558;50.178;8.370;2023-02-05T07:30:17;1.77;;;1.23;;
18857;SDS011;9558;50.178;8.370;2023-02-05T07:32:44;5.70;;;1.45;;
18857;SDS011;9558;50.178;8.370;2023-02-05T07:35:10;5.43;;;1.98;;
18857;SDS011;9558;50.178;8.370;2023-02-05T07:37:37;3.15;;;1.88;;
18857;SDS011;9558;50.178;8.370;2023-02-05T07:40:04;1.92;;;1.52;;
18857;SDS011;9558;50.178;8.370;2023-02-05T07:42:31;3.20;;;1.73;;
18857;SDS011;9558;50.178;8.370;2023-02-05T07:44:59;3.85;;;1.92;;
18857;SDS011;9558;50.178;8.370;2023-02-05T07:47:25;5.13;;;2.28;;
18857;SDS011;9558;50.178;8.370;2023-02-05T07:49:51;3.63;;;2.10;;
18857;SDS011;9558;50.178;8.370;2023-02-05T07:52:18;5.72;;;2.63;;
18857;SDS011;9558;50.178;8.370;2023-02-05T07:54:45;5.03;;;1.70;;
18857;SDS011;9558;50.178;8.370;2023-02-05T07:57:11;8.05;;;2.38;;
18857;SDS011;9558;50.178;8.370;2023-02-05T07:59:38;16.00;;;2.00;;
18857;SDS011;9558;50.178;8.370;2023-02-05T08:02:06;11.02;;;2.65;;
18857;SDS011;9558;50.178;8.370;2023-02-05T08:04:32;5.10;;;1.48;;
18857;SDS011;9558;50.178;8.370;2023-02-05T08:07:00;2.90;;;2.15;;
18857;SDS011;9558;50.178;8.370;2023-02-05T08:09:26;4.85;;;2.50;;
18857;SDS011;9558;50.178;8.370;2023-02-05T08:11:53;11.88;;;3.55;;
18857;SDS011;9558;50.178;8.370;2023-02-05T08:14:20;13.48;;;3.58;;
18857;SDS011;9558;50.178;8.370;2023-02-05T08:16:46;4.28;;;1.63;;
18857;SDS011;9558;50.178;8.370;2023-02-05T08:19:15;13.45;;;3.78;;
18857;SDS011;9558;50.178;8.370;2023-02-05T08:21:42;1.38;;;1.25;;
18857;SDS011;9558;50.178;8.370;2023-02-05T08:24:09;4.38;;;1.52;;
18857;SDS011;9558;50.178;8.370;2023-02-05T08:26:36;4.45;;;2.05;;
18857;SDS011;9558;50.178;8.370;2023-02-05T08:29:03;4.47;;;1.60;;
18857;SDS011;9558;50.178;8.370;2023-02-05T08:31:32;8.40;;;3.10;;
18857;SDS011;9558;50.178;8.370;2023-02-05T08:33:59;2.67;;;2.47;;
18857;SDS011;9558;50.178;8.370;2023-02-05T08:36:27;4.28;;;2.15;;
18857;SDS011;9558;50.178;8.370;2023-02-05T08:38:54;9.23;;;3.67;;
18857;SDS011;9558;50.178;8.370;2023-02-05T08:41:21;7.80;;;2.90;;
18857;SDS011;9558;50.178;8.370;2023-02-05T08:43:48;7.68;;;3.30;;
18857;SDS011;9558;50.178;8.370;2023-02-05T08:46:16;6.25;;;1.92;;
18857;SDS011;9558;50.178;8.370;2023-02-05T08:48:45;6.20;;;2.75;;
18857;SDS011;9558;50.178;8.370;2023-02-05T08:51:13;9.55;;;3.83;;
18857;SDS011;9558;50.178;8.370;2023-02-05T08:56:08;3.67;;;2.65;;
18857;SDS011;9558;50.178;8.370;2023-02-05T08:58:35;9.93;;;2.42;;
18857;SDS011;9558;50.178;8.370;2023-02-05T09:01:03;5.72;;;3.47;;
18857;SDS011;9558;50.178;8.370;2023-02-05T09:03:31;3.70;;;3.10;;
18857;SDS011;9558;50.178;8.370;2023-02-05T09:05:58;13.77;;;3.60;;
18857;SDS011;9558;50.178;8.370;2023-02-05T09:08:26;4.57;;;3.15;;
18857;SDS011;9558;50.178;8.370;2023-02-05T09:10:55;8.60;;;3.38;;
18857;SDS011;9558;50.178;8.370;2023-02-05T09:13:21;5.22;;;2.22;;
18857;SDS011;9558;50.178;8.370;2023-02-05T09:15:48;5.50;;;3.15;;
18857;SDS011;9558;50.178;8.370;2023-02-05T09:18:14;6.82;;;2.05;;
18857;SDS011;9558;50.178;8.370;2023-02-05T09:20:41;4.57;;;3.08;;
18857;SDS011;9558;50.178;8.370;2023-02-05T09:23:09;3.42;;;2.58;;
18857;SDS011;9558;50.178;8.370;2023-02-05T09:25:36;6.68;;;3.25;;
18857;SDS011;9558;50.178;8.370;2023-02-05T09:28:04;9.10;;;3.22;;
18857;SDS011;9558;50.178;8.370;2023-02-05T09:30:33;6.35;;;2.65;;
18857;SDS011;9558;50.178;8.370;2023-02-05T09:33:00;5.03;;;3.08;;
18857;SDS011;9558;50.178;8.370;2023-02-05T09:35:27;6.88;;;2.85;;
18857;SDS011;9558;50.178;8.370;2023-02-05T09:37:53;7.32;;;3.28;;
18857;SDS011;9558;50.178;8.370;2023-02-05T09:40:20;6.20;;;2.70;;
18857;SDS011;9558;50.178;8.370;2023-02-05T09:42:52;5.72;;;2.58;;
18857;SDS011;9558;50.178;8.370;2023-02-05T09:45:34;3.03;;;1.88;;
18857;SDS011;9558;50.178;8.370;2023-02-05T09:48:06;13.80;;;2.45;;
18857;SDS011;9558;50.178;8.370;2023-02-05T09:50:43;6.55;;;3.55;;
18857;SDS011;9558;50.178;8.370;2023-02-05T09:53:11;8.15;;;3.05;;
18857;SDS011;9558;50.178;8.370;2023-02-05T09:55:42;6.35;;;2.65;;
18857;SDS011;9558;50.178;8.370;2023-02-05T09:58:10;5.88;;;2.83;;
18857;SDS011;9558;50.178;8.370;2023-02-05T10:00:43;2.95;;;1.98;;
18857;SDS011;9558;50.178;8.370;2023-02-05T10:03:16;4.70;;;3.10;;
18857;SDS011;9558;50.178;8.370;2023-02-05T10:05:52;3.13;;;1.45;;
18857;SDS011;9558;50.178;8.370;2023-02-05T10:08:32;6.57;;;2.53;;
18857;SDS011;9558;50.178;8.370;2023-02-05T10:11:08;5.25;;;2.60;;
18857;SDS011;9558;50.178;8.370;2023-02-05T10:13:43;2.42;;;1.85;;
18857;SDS011;9558;50.178;8.370;2023-02-05T10:16:18;7.32;;;2.30;;
18857;SDS011;9558;50.178;8.370;2023-02-05T10:19:05;5.55;;;2.50;;
18857;SDS011;9558;50.178;8.370;2023-02-05T10:21:54;2.38;;;2.00;;
18857;SDS011;9558;50.178;8.370;2023-02-05T10:24:33;3.25;;;2.00;;
18857;SDS011;9558;50.178;8.370;2023-02-05T10:27:13;5.30;;;2.97;;
18857;SDS011;9558;50.178;8.370;2023-02-05T10:29:46;4.20;;;2.33;;
18857;SDS011;9558;50.178;8.370;2023-02-05T10:32:22;15.65;;;7.38;;
18857;SDS011;9558;50.178;8.370;2023-02-05T10:34:57;12.40;;;4.68;;
18857;SDS011;9558;50.178;8.370;2023-02-05T10:37:31;8.90;;;3.55;;
18857;SDS011;9558;50.178;8.370;2023-02-05T10:40:11;10.57;;;3.97;;
18857;SDS011;9558;50.178;8.370;2023-02-05T10:42:43;6.60;;;3.80;;
18857;SDS011;9558;50.178;8.370;2023-02-05T10:45:13;7.78;;;3.00;;
18857;SDS011;9558;50.178;8.370;2023-02-05T10:47:48;5.30;;;3.22;;
18857;SDS011;9558;50.178;8.370;2023-02-05T10:50:26;5.35;;;2.78;;
18857;SDS011;9558;50.178;8.370;2023-02-05T10:52:55;4.65;;;3.05;;
18857;SDS011;9558;50.178;8.370;2023-02-05T10:55:22;5.43;;;3.90;;
18857;SDS011;9558;50.178;8.370;2023-02-05T10:57:48;6.20;;;3.45;;
18857;SDS011;9558;50.178;8.370;2023-02-05T11:00:16;5.70;;;3.17;;
18857;SDS011;9558;50.178;8.370;2023-02-05T11:02:46;9.95;;;3.13;;
18857;SDS011;9558;50.178;8.370;2023-02-05T11:05:18;10.45;;;3.75;;
18857;SDS011;9558;50.178;8.370;2023-02-05T11:07:50;6.00;;;4.10;;
18857;SDS011;9558;50.178;8.370;2023-02-05T11:10:18;11.20;;;5.63;;
18857;SDS011;9558;50.178;8.370;2023-02-05T11:12:48;7.22;;;4.55;;
18857;SDS011;9558;50.178;8.370;2023-02-05T11:15:17;6.03;;;3.00;;
18857;SDS011;9558;50.178;8.370;2023-02-05T11:17:50;5.90;;;3.60;;
18857;SDS011;9558;50.178;8.370;2023-02-05T11:20:21;7.13;;;4.50;;
18857;SDS011;9558;50.178;8.370;2023-02-05T11:23:03;6.30;;;3.90;;
18857;SDS011;9558;50.178;8.370;2023-02-05T11:25:31;5.38;;;3.38;;
18857;SDS011;9558;50.178;8.370;2023-02-05T11:27:58;7.82;;;4.10;;
18857;SDS011;9558;50.178;8.370;2023-02-05T11:32:56;7.65;;;3.33;;
18857;SDS011;9558;50.178;8.370;2023-02-05T11:35:23;8.93;;;4.65;;
18857;SDS011;9558;50.178;8.370;2023-02-05T11:37:55;6.88;;;4.40;;
18857;SDS011;9558;50.178;8.370;2023-02-05T11:43:00;7.93;;;3.88;;
18857;SDS011;9558;50.178;8.370;2023-02-05T11:45:30;3.83;;;2.25;;
18857;SDS011;9558;50.178;8.370;2023-02-05T11:48:00;4.65;;;1.75;;
18857;SDS011;9558;50.178;8.370;2023-02-05T11:50:29;5.97;;;3.88;;
18857;SDS011;9558;50.178;8.370;2023-02-05T11:53:04;3.03;;;1.30;;
18857;SDS011;9558;50.178;8.370;2023-02-05T11:55:37;2.42;;;0.90;;
18857;SDS011;9558;50.178;8.370;2023-02-05T11:58:05;1.60;;;1.25;;
18857;SDS011;9558;50.178;8.370;2023-02-05T12:00:49;1.48;;;0.88;;
18857;SDS011;9558;50.178;8.370;2023-02-05T12:03:18;1.33;;;0.88;;
18857;SDS011;9558;50.178;8.370;2023-02-05T12:05:46;1.77;;;1.35;;
18857;SDS011;9558;50.178;8.370;2023-02-05T12:08:25;2.22;;;1.10;;
18857;SDS011;9558;50.178;8.370;2023-02-05T12:11:00;3.00;;;1.45;;
18857;SDS011;9558;50.178;8.370;2023-02-05T12:13:41;3.28;;;2.22;;
18857;SDS011;9558;50.178;8.370;2023-02-05T12:16:18;2.28;;;1.10;;
18857;SDS011;9558;50.178;8.370;2023-02-05T12:18:57;3.90;;;1.90;;
18857;SDS011;9558;50.178;8.370;2023-02-05T12:21:34;6.85;;;3.00;;
18857;SDS011;9558;50.178;8.370;2023-02-05T12:24:11;7.80;;;4.28;;
18857;SDS011;9558;50.178;8.370;2023-02-05T12:26:54;4.57;;;2.83;;
18857;SDS011;9558;50.178;8.370;2023-02-05T12:29:31;4.75;;;2.72;;
18857;SDS011;9558;50.178;8.370;2023-02-05T12:32:13;5.22;;;3.85;;
18857;SDS011;9558;50.178;8.370;2023-02-05T12:34:51;8.48;;;4.35;;
18857;SDS011;9558;50.178;8.370;2023-02-05T12:37:34;5.80;;;3.05;;
18857;SDS011;9558;50.178;8.370;2023-02-05T12:40:14;5.00;;;3.28;;
18857;SDS011;9558;50.178;8.370;2023-02-05T12:42:56;4.78;;;3.28;;
18857;SDS011;9558;50.178;8.370;2023-02-05T12:45:33;4.60;;;3.05;;
18857;SDS011;9558;50.178;8.370;2023-02-05T12:48:20;5.20;;;4.15;;
18857;SDS011;9558;50.178;8.370;2023-02-05T12:51:07;4.97;;;4.03;;
18857;SDS011;9558;50.178;8.370;2023-02-05T12:53:51;7.90;;;3.78;;
18857;SDS011;9558;50.178;8.370;2023-02-05T12:56:37;2.38;;;1.90;;
18857;SDS011;9558;50.178;8.370;2023-02-05T12:59:14;4.53;;;2.13;;
18857;SDS011;9558;50.178;8.370;2023-02-05T13:01:50;4.88;;;2.65;;
18857;SDS011;9558;50.178;8.370;2023-02-05T13:04:22;4.78;;;3.28;;
18857;SDS011;9558;50.178;8.370;2023-02-05T13:06:55;3.72;;;2.47;;
18857;SDS011;9558;50.178;8.370;2023-02-05T13:09:30;2.30;;;2.10;;
18857;SDS011;9558;50.178;8.370;2023-02-05T13:12:06;1.95;;;1.60;;
18857;SDS011;9558;50.178;8.370;2023-02-05T13:14:37;4.45;;;1.35;;
18857;SDS011;9558;50.178;8.370;2023-02-05T13:17:10;2.55;;;1.25;;
18857;SDS011;9558;50.178;8.370;2023-02-05T13:19:41;3.22;;;1.92;;
18857;SDS011;9558;50.178;8.370;2023-02-05T13:22:14;3.22;;;2.03;;
18857;SDS011;9558;50.178;8.370;2023-02-05T13:25:04;3.63;;;1.70;;
18857;SDS011;9558;50.178;8.370;2023-02-05T13:28:15;4.07;;;1.25;;
18857;SDS011;9558;50.178;8.370;2023-02-05T13:31:08;2.22;;;1.70;;
18857;SDS011;9558;50.178;8.370;2023-02-05T13:33:41;4.13;;;2.50;;
18857;SDS011;9558;50.178;8.370;2023-02-05T13:36:13;3.35;;;2.70;;
18857;SDS011;9558;50.178;8.370;2023-02-05T13:39:00;6.07;;;3.05;;
18857;SDS011;9558;50.178;8.370;2023-02-05T13:47:52;5.20;;;2.42;;
18857;SDS011;9558;50.178;8.370;2023-02-05T13:50:51;2.00;;;1.77;;
18857;SDS011;9558;50.178;8.370;2023-02-05T13:53:48;5.40;;;2.13;;
18857;SDS011;9558;50.178;8.370;2023-02-05T13:56:26;5.60;;;2.15;;
18857;SDS011;9558;50.178;8.370;2023-02-05T13:59:02;5.57;;;3.38;;
18857;SDS011;9558;50.178;8.370;2023-02-05T14:01:34;3.78;;;1.67;;
18857;SDS011;9558;50.178;8.370;2023-02-05T14:04:07;4.30;;;2.13;;
18857;SDS011;9558;50.178;8.370;2023-02-05T14:06:45;4.13;;;2.25;;
18857;SDS011;9558;50.178;8.370;2023-02-05T14:09:21;3.22;;;1.73;;
18857;SDS011;9558;50.178;8.370;2023-02-05T14:11:51;1.55;;;1.38;;
18857;SDS011;9558;50.178;8.370;2023-02-05T14:14:22;3.85;;;2.10;;
18857;SDS011;9558;50.178;8.370;2023-02-05T14:16:51;3.65;;;2.38;;
18857;SDS011;9558;50.178;8.370;2023-02-05T14:19:22;3.38;;;2.20;;
18857;SDS011;9558;50.178;8.370;2023-02-05T14:21:58;4.35;;;2.20;;
18857;SDS011;9558;50.178;8.370;2023-02-05T14:24:36;3.08;;;2.00;;
18857;SDS011;9558;50.178;8.370;2023-02-05T14:33:31;2.53;;;1.23;;
18857;SDS011;9558;50.178;8.370;2023-02-05T14:38:58;2.03;;;1.25;;
18857;SDS011;9558;50.178;8.370;2023-02-05T14:41:28;1.95;;;1.17;;
18857;SDS011;9558;50.178;8.370;2023-02-05T14:44:00;2.88;;;0.90;;
18857;SDS011;9558;50.178;8.370;2023-02-05T14:46:31;1.13;;;0.70;;
18857;SDS011;9558;50.178;8.370;2023-02-05T14:49:01;0.95;;;0.85;;
18857;SDS011;9558;50.178;8.370;2023-02-05T14:51:33;1.17;;;0.50;;
18857;SDS011;9558;50.178;8.370;2023-02-05T14:54:03;0.82;;;0.57;;
18857;SDS011;9558;50.178;8.370;2023-02-05T14:56:35;0.68;;;0.50;;
18857;SDS011;9558;50.178;8.370;2023-02-05T14:59:06;0.70;;;0.30;;
18857;SDS011;9558;50.178;8.370;2023-02-05T15:01:47;0.20;;;0.20;;
18857;SDS011;9558;50.178;8.370;2023-02-05T15:07:15;0.50;;;0.30;;
18857;SDS011;9558;50.178;8.370;2023-02-05T15:09:49;2.30;;;1.02;;
18857;SDS011;9558;50.178;8.370;2023-02-05T15:12:33;0.70;;;0.50;;
18857;SDS011;9558;50.178;8.370;2023-02-05T15:15:25;1.98;;;0.63;;
18857;SDS011;9558;50.178;8.370;2023-02-05T15:17:57;0.40;;;0.40;;
18857;SDS011;9558;50.178;8.370;2023-02-05T15:20:30;2.92;;;0.80;;
18857;SDS011;9558;50.178;8.370;2023-02-05T15:23:09;0.20;;;0.20;;
18857;SDS011;9558;50.178;8.370;2023-02-05T15:25:44;0.30;;;0.25;;
18857;SDS011;9558;50.178;8.370;2023-02-05T15:28:20;0.32;;;0.30;;
18857;SDS011;9558;50.178;8.370;2023-02-05T15:30:52;0.30;;;0.30;;
18857;SDS011;9558;50.178;8.370;2023-02-05T15:33:29;0.77;;;0.38;;
18857;SDS011;9558;50.178;8.370;2023-02-05T15:36:04;0.50;;;0.40;;
18857;SDS011;9558;50.178;8.370;2023-02-05T15:38:40;0.77;;;0.50;;
18857;SDS011;9558;50.178;8.370;2023-02-05T15:41:11;0.20;;;0.20;;
18857;SDS011;9558;50.178;8.370;2023-02-05T15:43:42;0.30;;;0.30;;
18857;SDS011;9558;50.178;8.370;2023-02-05T15:46:22;0.40;;;0.30;;
18857;SDS011;9558;50.178;8.370;2023-02-05T15:48:49;0.30;;;0.20;;
18857;SDS011;9558;50.178;8.370;2023-02-05T15:51:17;0.20;;;0.20;;
18857;SDS011;9558;50.178;8.370;2023-02-05T15:53:53;0.20;;;0.20;;
18857;SDS011;9558;50.178;8.370;2023-02-05T15:56:26;0.28;;;0.28;;
18857;SDS011;9558;50.178;8.370;2023-02-05T15:58:57;0.80;;;0.47;;